sensor_id;sensor_type;location;lat;lon;timestamp;P1;durP1;ratioP1;P2;durP2;ratioP2
37201;SDS011;37799;52.390;6.136;2023-04-19T00:02:16;9.43;;;2.55;;
37201;SDS011;37799;52.390;6.136;2023-04-19T00:04:42;5.80;;;1.35;;
37201;SDS011;37799;52.390;6.136;2023-04-19T00:07:09;8.85;;;2.70;;
37201;SDS011;37799;52.390;6.136;2023-04-19T00:09:35;7.32;;;2.25;;
37201;SDS011;37799;52.390;6.136;2023-04-19T00:12:00;7.05;;;2.15;;
37201;SDS011;37799;52.390;6.136;2023-04-19T00:14:26;22.05;;;2.92;;
37201;SDS011;37799;52.390;6.136;2023-04-19T00:16:52;7.53;;;2.85;;
37201;SDS011;37799;52.390;6.136;2023-04-19T00:19:18;6.32;;;2.15;;
37201;SDS011;37799;52.390;6.136;2023-04-19T00:21:43;9.90;;;2.67;;
37201;SDS011;37799;52.390;6.136;2023-04-19T00:24:09;10.93;;;2.40;;
37201;SDS011;37799;52.390;6.136;2023-04-19T00:26:34;8.13;;;2.17;;
37201;SDS011;37799;52.390;6.136;2023-04-19T00:28:59;9.98;;;2.60;;
37201;SDS011;37799;52.390;6.136;2023-04-19T00:31:25;8.18;;;1.70;;
37201;SDS011;37799;52.390;6.136;2023-04-19T00:33:50;4.80;;;1.67;;
37201;SDS011;37799;52.390;6.136;2023-04-19T00:36:15;6.03;;;2.00;;
37201;SDS011;37799;52.390;6.136;2023-04-19T00:38:41;7.00;;;2.20;;
37201;SDS011;37799;52.390;6.136;2023-04-19T00:41:06;15.93;;;2.92;;
37201;SDS011;37799;52.390;6.136;2023-04-19T00:43:31;8.00;;;2.20;;
37201;SDS011;37799;52.390;6.136;2023-04-19T00:45:57;6.65;;;2.20;;
37201;SDS011;37799;52.390;6.136;2023-04-19T00:48:22;6.10;;;1.88;;
37201;SDS011;37799;52.390;6.136;2023-04-19T00:50:48;7.70;;;1.70;;
37201;SDS011;37799;52.390;6.136;2023-04-19T00:53:13;6.80;;;2.03;;
37201;SDS011;37799;52.390;6.136;2023-04-19T00:55:40;6.65;;;2.00;;
37201;SDS011;37799;52.390;6.136;2023-04-19T00:58:06;10.13;;;3.30;;
37201;SDS011;37799;52.390;6.136;2023-04-19T01:00:32;8.00;;;2.15;;
37201;SDS011;37799;52.390;6.136;2023-04-19T01:02:58;6.75;;;2.40;;
37201;SDS011;37799;52.390;6.136;2023-04-19T01:05:23;8.63;;;2.60;;
37201;SDS011;37799;52.390;6.136;2023-04-19T01:07:48;8.85;;;2.50;;
37201;SDS011;37799;52.390;6.136;2023-04-19T01:10:14;7.97;;;2.25;;
37201;SDS011;37799;52.390;6.136;2023-04-19T01:12:39;11.18;;;2.55;;
37201;SDS011;37799;52.390;6.136;2023-04-19T01:15:05;10.38;;;3.30;;
37201;SDS011;37799;52.390;6.136;2023-04-19T01:17:30;9.00;;;1.95;;
37201;SDS011;37799;52.390;6.136;2023-04-19T01:20:00;8.73;;;2.72;;
37201;SDS011;37799;52.390;6.136;2023-04-19T01:22:27;8.35;;;2.58;;
37201;SDS011;37799;52.390;6.136;2023-04-19T01:24:54;7.50;;;2.33;;
37201;SDS011;37799;52.390;6.136;2023-04-19T01:27:19;8.23;;;2.10;;
37201;SDS011;37799;52.390;6.136;2023-04-19T01:29:45;11.23;;;2.67;;
37201;SDS011;37799;52.390;6.136;2023-04-19T01:32:10;9.02;;;2.47;;
37201;SDS011;37799;52.390;6.136;2023-04-19T01:34:37;7.45;;;2.30;;
37201;SDS011;37799;52.390;6.136;2023-04-19T01:37:03;8.63;;;2.42;;
37201;SDS011;37799;52.390;6.136;2023-04-19T01:39:28;10.23;;;2.00;;
37201;SDS011;37799;52.390;6.136;2023-04-19T01:41:54;6.35;;;1.98;;
37201;SDS011;37799;52.390;6.136;2023-04-19T01:44:19;8.65;;;2.25;;
37201;SDS011;37799;52.390;6.136;2023-04-19T01:46:44;5.85;;;1.85;;
37201;SDS011;37799;52.390;6.136;2023-04-19T01:49:10;9.23;;;2.13;;
37201;SDS011;37799;52.390;6.136;2023-04-19T01:51:37;7.32;;;1.85;;
37201;SDS011;37799;52.390;6.136;2023-04-19T01:54:02;5.97;;;1.98;;
37201;SDS011;37799;52.390;6.136;2023-04-19T01:56:28;6.88;;;1.92;;
37201;SDS011;37799;52.390;6.136;2023-04-19T01:58:53;7.25;;;1.70;;
37201;SDS011;37799;52.390;6.136;2023-04-19T02:01:19;5.50;;;1.65;;
37201;SDS011;37799;52.390;6.136;2023-04-19T02:03:44;6.22;;;1.70;;
37201;SDS011;37799;52.390;6.136;2023-04-19T02:06:10;7.75;;;2.35;;
37201;SDS011;37799;52.390;6.136;2023-04-19T02:08:36;6.38;;;2.08;;
37201;SDS011;37799;52.390;6.136;2023-04-19T02:11:06;8.98;;;2.50;;
37201;SDS011;37799;52.390;6.136;2023-04-19T02:13:33;7.28;;;1.90;;
37201;SDS011;37799;52.390;6.136;2023-04-19T02:15:58;8.05;;;2.08;;
37201;SDS011;37799;52.390;6.136;2023-04-19T02:18:26;5.70;;;1.98;;
37201;SDS011;37799;52.390;6.136;2023-04-19T02:20:53;9.20;;;2.67;;
37201;SDS011;37799;52.390;6.136;2023-04-19T02:23:19;6.90;;;1.73;;
37201;SDS011;37799;52.390;6.136;2023-04-19T02:25:44;8.90;;;2.00;;
37201;SDS011;37799;52.390;6.136;2023-04-19T02:28:10;6.15;;;2.08;;
37201;SDS011;37799;52.390;6.136;2023-04-19T02:30:35;7.60;;;2.15;;
37201;SDS011;37799;52.390;6.136;2023-04-19T02:33:01;9.30;;;1.77;;
37201;SDS011;37799;52.390;6.136;2023-04-19T02:35:26;5.55;;;1.48;;
37201;SDS011;37799;52.390;6.136;2023-04-19T02:37:51;6.82;;;1.73;;
37201;SDS011;37799;52.390;6.136;2023-04-19T02:40:17;6.10;;;1.52;;
37201;SDS011;37799;52.390;6.136;2023-04-19T02:42:42;8.02;;;1.63;;
37201;SDS011;37799;52.390;6.136;2023-04-19T02:45:07;5.35;;;1.85;;
37201;SDS011;37799;52.390;6.136;2023-04-19T02:47:33;9.68;;;1.77;;
37201;SDS011;37799;52.390;6.136;2023-04-19T02:49:58;6.85;;;1.73;;
37201;SDS011;37799;52.390;6.136;2023-04-19T02:52:25;8.50;;;1.77;;
37201;SDS011;37799;52.390;6.136;2023-04-19T02:54:50;6.05;;;1.35;;
37201;SDS011;37799;52.390;6.136;2023-04-19T02:57:16;7.55;;;1.45;;
37201;SDS011;37799;52.390;6.136;2023-04-19T02:59:41;8.48;;;1.52;;
37201;SDS011;37799;52.390;6.136;2023-04-19T03:02:06;9.85;;;1.67;;
37201;SDS011;37799;52.390;6.136;2023-04-19T03:04:32;7.95;;;2.35;;
37201;SDS011;37799;52.390;6.136;2023-04-19T03:06:58;6.53;;;1.40;;
37201;SDS011;37799;52.390;6.136;2023-04-19T03:09:23;4.88;;;1.35;;
37201;SDS011;37799;52.390;6.136;2023-04-19T03:11:49;8.82;;;1.95;;
37201;SDS011;37799;52.390;6.136;2023-04-19T03:14:15;7.05;;;1.60;;
37201;SDS011;37799;52.390;6.136;2023-04-19T03:16:40;6.13;;;1.77;;
37201;SDS011;37799;52.390;6.136;2023-04-19T03:19:06;6.30;;;1.65;;
37201;SDS011;37799;52.390;6.136;2023-04-19T03:21:31;5.85;;;1.70;;
37201;SDS011;37799;52.390;6.136;2023-04-19T03:23:56;4.88;;;1.67;;
37201;SDS011;37799;52.390;6.136;2023-04-19T03:26:22;6.13;;;1.60;;
37201;SDS011;37799;52.390;6.136;2023-04-19T03:28:47;4.70;;;1.20;;
37201;SDS011;37799;52.390;6.136;2023-04-19T03:31:13;7.22;;;1.73;;
37201;SDS011;37799;52.390;6.136;2023-04-19T03:33:38;8.10;;;1.52;;
37201;SDS011;37799;52.390;6.136;2023-04-19T03:36:04;6.38;;;1.67;;
37201;SDS011;37799;52.390;6.136;2023-04-19T03:38:29;5.57;;;1.67;;
37201;SDS011;37799;52.390;6.136;2023-04-19T03:40:55;4.30;;;1.10;;
37201;SDS011;37799;52.390;6.136;2023-04-19T03:43:21;4.72;;;1.15;;
37201;SDS011;37799;52.390;6.136;2023-04-19T03:45:48;5.80;;;1.40;;
37201;SDS011;37799;52.390;6.136;2023-04-19T03:48:13;6.55;;;1.30;;
37201;SDS011;37799;52.390;6.136;2023-04-19T03:50:39;7.45;;;1.55;;
37201;SDS011;37799;52.390;6.136;2023-04-19T03:53:04;6.90;;;1.45;;
37201;SDS011;37799;52.390;6.136;2023-04-19T03:55:30;6.13;;;1.48;;
37201;SDS011;37799;52.390;6.136;2023-04-19T03:57:55;6.22;;;1.60;;
37201;SDS011;37799;52.390;6.136;2023-04-19T04:00:20;4.15;;;1.17;;
37201;SDS011;37799;52.390;6.136;2023-04-19T04:02:46;5.82;;;1.13;;
37201;SDS011;37799;52.390;6.136;2023-04-19T04:05:11;6.10;;;1.50;;
37201;SDS011;37799;52.390;6.136;2023-04-19T04:07:37;4.10;;;1.30;;
37201;SDS011;37799;52.390;6.136;2023-04-19T04:10:02;5.57;;;1.60;;
37201;SDS011;37799;52.390;6.136;2023-04-19T04:12:28;7.75;;;1.73;;
37201;SDS011;37799;52.390;6.136;2023-04-19T04:14:54;4.82;;;1.23;;
37201;SDS011;37799;52.390;6.136;2023-04-19T04:17:19;3.10;;;0.80;;
37201;SDS011;37799;52.390;6.136;2023-04-19T04:19:44;4.72;;;1.35;;
37201;SDS011;37799;52.390;6.136;2023-04-19T04:22:10;5.07;;;1.27;;
37201;SDS011;37799;52.390;6.136;2023-04-19T04:24:38;5.43;;;1.30;;
37201;SDS011;37799;52.390;6.136;2023-04-19T04:27:05;3.97;;;1.13;;
37201;SDS011;37799;52.390;6.136;2023-04-19T04:29:38;4.50;;;1.10;;
37201;SDS011;37799;52.390;6.136;2023-04-19T04:32:04;5.07;;;1.33;;
37201;SDS011;37799;52.390;6.136;2023-04-19T04:34:34;3.58;;;1.30;;
37201;SDS011;37799;52.390;6.136;2023-04-19T04:37:01;4.40;;;0.75;;
37201;SDS011;37799;52.390;6.136;2023-04-19T04:39:27;8.57;;;1.48;;
37201;SDS011;37799;52.390;6.136;2023-04-19T04:41:53;5.10;;;1.42;;
37201;SDS011;37799;52.390;6.136;2023-04-19T04:44:18;5.90;;;1.35;;
37201;SDS011;37799;52.390;6.136;2023-04-19T04:46:46;5.00;;;1.13;;
37201;SDS011;37799;52.390;6.136;2023-04-19T04:49:12;5.25;;;1.27;;
37201;SDS011;37799;52.390;6.136;2023-04-19T04:51:37;5.72;;;1.25;;
37201;SDS011;37799;52.390;6.136;2023-04-19T04:54:02;4.60;;;1.00;;
37201;SDS011;37799;52.390;6.136;2023-04-19T04:56:29;2.97;;;0.90;;
37201;SDS011;37799;52.390;6.136;2023-04-19T04:58:54;3.95;;;0.77;;
37201;SDS011;37799;52.390;6.136;2023-04-19T05:01:21;3.67;;;0.98;;
37201;SDS011;37799;52.390;6.136;2023-04-19T05:03:47;3.88;;;0.90;;
37201;SDS011;37799;52.390;6.136;2023-04-19T05:06:13;6.22;;;1.08;;
37201;SDS011;37799;52.390;6.136;2023-04-19T05:08:38;3.72;;;1.10;;
37201;SDS011;37799;52.390;6.136;2023-04-19T05:11:03;4.90;;;0.90;;
37201;SDS011;37799;52.390;6.136;2023-04-19T05:13:29;3.72;;;0.77;;
37201;SDS011;37799;52.390;6.136;2023-04-19T05:15:54;3.03;;;0.63;;
37201;SDS011;37799;52.390;6.136;2023-04-19T05:18:20;6.88;;;0.85;;
37201;SDS011;37799;52.390;6.136;2023-04-19T05:20:45;3.10;;;0.73;;
37201;SDS011;37799;52.390;6.136;2023-04-19T05:23:10;3.00;;;0.80;;
37201;SDS011;37799;52.390;6.136;2023-04-19T05:25:36;3.30;;;0.77;;
37201;SDS011;37799;52.390;6.136;2023-04-19T05:28:01;3.28;;;0.75;;
37201;SDS011;37799;52.390;6.136;2023-04-19T05:30:27;4.72;;;0.80;;
37201;SDS011;37799;52.390;6.136;2023-04-19T05:32:53;2.53;;;0.60;;
37201;SDS011;37799;52.390;6.136;2023-04-19T05:35:18;4.18;;;1.15;;
37201;SDS011;37799;52.390;6.136;2023-04-19T05:37:44;3.67;;;0.40;;
37201;SDS011;37799;52.390;6.136;2023-04-19T05:40:09;1.55;;;0.17;;
37201;SDS011;37799;52.390;6.136;2023-04-19T05:42:34;3.33;;;0.50;;
37201;SDS011;37799;52.390;6.136;2023-04-19T05:45:00;3.38;;;0.60;;
37201;SDS011;37799;52.390;6.136;2023-04-19T05:47:26;2.60;;;0.70;;
37201;SDS011;37799;52.390;6.136;2023-04-19T05:49:51;4.65;;;0.90;;
37201;SDS011;37799;52.390;6.136;2023-04-19T05:52:16;3.15;;;0.60;;
37201;SDS011;37799;52.390;6.136;2023-04-19T05:54:42;3.03;;;1.33;;
37201;SDS011;37799;52.390;6.136;2023-04-19T05:57:08;1.88;;;0.40;;
37201;SDS011;37799;52.390;6.136;2023-04-19T05:59:33;3.08;;;0.40;;
37201;SDS011;37799;52.390;6.136;2023-04-19T06:01:58;2.55;;;0.40;;
37201;SDS011;37799;52.390;6.136;2023-04-19T06:04:25;3.92;;;0.85;;
37201;SDS011;37799;52.390;6.136;2023-04-19T06:06:50;0.68;;;0.22;;
37201;SDS011;37799;52.390;6.136;2023-04-19T06:09:15;2.05;;;0.52;;
37201;SDS011;37799;52.390;6.136;2023-04-19T06:11:42;2.45;;;0.80;;
37201;SDS011;37799;52.390;6.136;2023-04-19T06:14:08;3.83;;;0.80;;
37201;SDS011;37799;52.390;6.136;2023-04-19T06:16:34;0.93;;;0.30;;
37201;SDS011;37799;52.390;6.136;2023-04-19T06:18:59;2.95;;;0.75;;
37201;SDS011;37799;52.390;6.136;2023-04-19T06:21:25;2.72;;;0.45;;
37201;SDS011;37799;52.390;6.136;2023-04-19T06:23:50;3.80;;;0.85;;
37201;SDS011;37799;52.390;6.136;2023-04-19T06:26:16;4.68;;;1.45;;
37201;SDS011;37799;52.390;6.136;2023-04-19T06:28:41;1.00;;;0.20;;
37201;SDS011;37799;52.390;6.136;2023-04-19T06:31:06;0.95;;;0.22;;
37201;SDS011;37799;52.390;6.136;2023-04-19T06:33:32;1.98;;;0.50;;
37201;SDS011;37799;52.390;6.136;2023-04-19T06:35:57;3.30;;;0.55;;
37201;SDS011;37799;52.390;6.136;2023-04-19T06:38:22;3.70;;;0.63;;
37201;SDS011;37799;52.390;6.136;2023-04-19T06:40:48;2.65;;;0.82;;
37201;SDS011;37799;52.390;6.136;2023-04-19T06:43:13;2.00;;;0.43;;
37201;SDS011;37799;52.390;6.136;2023-04-19T06:45:38;1.63;;;0.52;;
37201;SDS011;37799;52.390;6.136;2023-04-19T06:48:04;3.58;;;0.88;;
37201;SDS011;37799;52.390;6.136;2023-04-19T06:50:29;3.08;;;0.60;;
37201;SDS011;37799;52.390;6.136;2023-04-19T06:52:55;3.38;;;0.80;;
37201;SDS011;37799;52.390;6.136;2023-04-19T06:55:20;1.40;;;0.50;;
37201;SDS011;37799;52.390;6.136;2023-04-19T06:57:45;7.47;;;0.73;;
37201;SDS011;37799;52.390;6.136;2023-04-19T07:00:11;2.60;;;0.50;;
37201;SDS011;37799;52.390;6.136;2023-04-19T07:02:37;2.50;;;0.40;;
37201;SDS011;37799;52.390;6.136;2023-04-19T07:05:03;2.70;;;0.52;;
37201;SDS011;37799;52.390;6.136;2023-04-19T07:07:29;3.40;;;0.50;;
37201;SDS011;37799;52.390;6.136;2023-04-19T07:09:54;3.08;;;0.43;;
37201;SDS011;37799;52.390;6.136;2023-04-19T07:12:19;4.25;;;0.70;;
37201;SDS011;37799;52.390;6.136;2023-04-19T07:14:45;4.07;;;0.95;;
37201;SDS011;37799;52.390;6.136;2023-04-19T07:17:10;3.00;;;0.70;;
37201;SDS011;37799;52.390;6.136;2023-04-19T07:19:37;1.75;;;0.38;;
37201;SDS011;37799;52.390;6.136;2023-04-19T07:22:02;1.40;;;0.30;;
37201;SDS011;37799;52.390;6.136;2023-04-19T07:24:27;1.80;;;0.45;;
37201;SDS011;37799;52.390;6.136;2023-04-19T07:26:54;2.00;;;0.30;;
37201;SDS011;37799;52.390;6.136;2023-04-19T07:29:20;2.58;;;0.40;;
37201;SDS011;37799;52.390;6.136;2023-04-19T07:31:46;1.95;;;0.45;;
37201;SDS011;37799;52.390;6.136;2023-04-19T07:34:11;2.75;;;0.63;;
37201;SDS011;37799;52.390;6.136;2023-04-19T07:36:36;2.60;;;0.43;;
37201;SDS011;37799;52.390;6.136;2023-04-19T07:39:03;2.05;;;0.40;;
37201;SDS011;37799;52.390;6.136;2023-04-19T07:41:29;3.13;;;0.63;;
37201;SDS011;37799;52.390;6.136;2023-04-19T07:43:55;3.33;;;0.70;;
37201;SDS011;37799;52.390;6.136;2023-04-19T07:46:21;1.60;;;0.30;;
37201;SDS011;37799;52.390;6.136;2023-04-19T07:48:46;3.28;;;0.50;;
37201;SDS011;37799;52.390;6.136;2023-04-19T07:51:15;2.00;;;0.30;;
37201;SDS011;37799;52.390;6.136;2023-04-19T07:53:41;2.72;;;0.40;;
37201;SDS011;37799;52.390;6.136;2023-04-19T07:56:07;1.45;;;0.30;;
37201;SDS011;37799;52.390;6.136;2023-04-19T07:58:33;3.83;;;0.32;;
37201;SDS011;37799;52.390;6.136;2023-04-19T08:00:59;1.50;;;0.30;;
37201;SDS011;37799;52.390;6.136;2023-04-19T08:03:25;0.45;;;0.10;;
37201;SDS011;37799;52.390;6.136;2023-04-19T08:05:50;2.35;;;0.40;;
37201;SDS011;37799;52.390;6.136;2023-04-19T08:08:16;1.70;;;0.30;;
37201;SDS011;37799;52.390;6.136;2023-04-19T08:10:41;1.75;;;0.40;;
37201;SDS011;37799;52.390;6.136;2023-04-19T08:13:07;3.13;;;0.55;;
37201;SDS011;37799;52.390;6.136;2023-04-19T08:15:33;2.80;;;0.70;;
37201;SDS011;37799;52.390;6.136;2023-04-19T08:17:59;3.35;;;0.50;;
37201;SDS011;37799;52.390;6.136;2023-04-19T08:20:24;1.67;;;0.20;;
37201;SDS011;37799;52.390;6.136;2023-04-19T08:22:50;2.10;;;0.45;;
37201;SDS011;37799;52.390;6.136;2023-04-19T08:25:16;1.25;;;0.20;;
37201;SDS011;37799;52.390;6.136;2023-04-19T08:27:41;1.00;;;0.20;;
37201;SDS011;37799;52.390;6.136;2023-04-19T08:30:07;2.55;;;0.30;;
37201;SDS011;37799;52.390;6.136;2023-04-19T08:32:33;1.50;;;0.60;;
37201;SDS011;37799;52.390;6.136;2023-04-19T08:34:58;1.27;;;0.30;;
37201;SDS011;37799;52.390;6.136;2023-04-19T08:37:25;1.17;;;0.30;;
37201;SDS011;37799;52.390;6.136;2023-04-19T08:39:50;0.93;;;0.10;;
37201;SDS011;37799;52.390;6.136;2023-04-19T08:42:16;1.33;;;0.25;;
37201;SDS011;37799;52.390;6.136;2023-04-19T08:44:41;3.38;;;0.55;;
37201;SDS011;37799;52.390;6.136;2023-04-19T08:47:08;1.45;;;0.20;;
37201;SDS011;37799;52.390;6.136;2023-04-19T08:49:35;1.00;;;0.20;;
37201;SDS011;37799;52.390;6.136;2023-04-19T08:52:03;2.20;;;0.40;;
37201;SDS011;37799;52.390;6.136;2023-04-19T08:54:33;1.08;;;0.20;;
37201;SDS011;37799;52.390;6.136;2023-04-19T08:57:00;2.25;;;0.40;;
37201;SDS011;37799;52.390;6.136;2023-04-19T08:59:26;2.10;;;0.43;;
37201;SDS011;37799;52.390;6.136;2023-04-19T09:01:53;2.42;;;0.47;;
37201;SDS011;37799;52.390;6.136;2023-04-19T09:04:19;2.38;;;0.40;;
37201;SDS011;37799;52.390;6.136;2023-04-19T09:06:45;1.85;;;0.20;;
37201;SDS011;37799;52.390;6.136;2023-04-19T09:11:46;1.70;;;0.20;;
37201;SDS011;37799;52.390;6.136;2023-04-19T09:14:13;1.75;;;0.20;;
37201;SDS011;37799;52.390;6.136;2023-04-19T09:16:39;2.35;;;0.30;;
37201;SDS011;37799;52.390;6.136;2023-04-19T09:19:05;1.65;;;0.20;;
37201;SDS011;37799;52.390;6.136;2023-04-19T09:21:33;0.57;;;0.15;;
37201;SDS011;37799;52.390;6.136;2023-04-19T09:24:00;1.42;;;0.17;;
37201;SDS011;37799;52.390;6.136;2023-04-19T09:26:26;1.55;;;0.20;;
37201;SDS011;37799;52.390;6.136;2023-04-19T09:29:01;1.15;;;0.10;;
37201;SDS011;37799;52.390;6.136;2023-04-19T09:31:29;1.00;;;0.20;;
37201;SDS011;37799;52.390;6.136;2023-04-19T09:33:55;4.13;;;0.28;;
37201;SDS011;37799;52.390;6.136;2023-04-19T09:36:28;1.70;;;0.30;;
37201;SDS011;37799;52.390;6.136;2023-04-19T09:38:56;1.52;;;0.28;;
37201;SDS011;37799;52.390;6.136;2023-04-19T09:41:22;1.30;;;0.75;;
37201;SDS011;37799;52.390;6.136;2023-04-19T09:43:48;1.98;;;0.35;;
37201;SDS011;37799;52.390;6.136;2023-04-19T09:51:40;1.23;;;0.30;;
37201;SDS011;37799;52.390;6.136;2023-04-19T09:54:07;1.40;;;0.30;;
37201;SDS011;37799;52.390;6.136;2023-04-19T09:56:34;2.88;;;0.60;;
37201;SDS011;37799;52.390;6.136;2023-04-19T09:59:01;1.80;;;0.40;;
37201;SDS011;37799;52.390;6.136;2023-04-19T10:01:27;1.38;;;0.28;;
37201;SDS011;37799;52.390;6.136;2023-04-19T10:03:58;1.95;;;0.45;;
37201;SDS011;37799;52.390;6.136;2023-04-19T10:06:24;1.35;;;0.30;;
37201;SDS011;37799;52.390;6.136;2023-04-19T10:08:49;1.80;;;0.30;;
37201;SDS011;37799;52.390;6.136;2023-04-19T10:11:19;1.90;;;0.20;;
37201;SDS011;37799;52.390;6.136;2023-04-19T10:13:45;1.23;;;0.20;;
37201;SDS011;37799;52.390;6.136;2023-04-19T10:16:13;4.75;;;1.63;;
37201;SDS011;37799;52.390;6.136;2023-04-19T10:18:38;0.95;;;0.20;;
37201;SDS011;37799;52.390;6.136;2023-04-19T10:21:05;2.22;;;0.35;;
37201;SDS011;37799;52.390;6.136;2023-04-19T10:23:32;2.13;;;0.38;;
37201;SDS011;37799;52.390;6.136;2023-04-19T10:25:58;3.35;;;0.68;;
37201;SDS011;37799;52.390;6.136;2023-04-19T10:28:23;1.42;;;0.35;;
37201;SDS011;37799;52.390;6.136;2023-04-19T10:31:01;1.33;;;0.55;;
37201;SDS011;37799;52.390;6.136;2023-04-19T10:33:29;2.20;;;0.55;;
37201;SDS011;37799;52.390;6.136;2023-04-19T10:36:07;2.10;;;0.30;;
37201;SDS011;37799;52.390;6.136;2023-04-19T10:38:40;1.48;;;0.30;;
37201;SDS011;37799;52.390;6.136;2023-04-19T10:41:19;1.75;;;0.50;;
37201;SDS011;37799;52.390;6.136;2023-04-19T10:48:49;1.83;;;0.27;;
37201;SDS011;37799;52.390;6.136;2023-04-19T10:51:37;3.17;;;0.70;;
37201;SDS011;37799;52.390;6.136;2023-04-19T10:54:54;2.60;;;0.57;;
37201;SDS011;37799;52.390;6.136;2023-04-19T10:59:38;1.63;;;0.38;;
37201;SDS011;37799;52.390;6.136;2023-04-19T11:07:14;2.22;;;0.60;;
37201;SDS011;37799;52.390;6.136;2023-04-19T11:09:43;2.72;;;0.50;;
37201;SDS011;37799;52.390;6.136;2023-04-19T11:12:10;4.18;;;0.60;;
37201;SDS011;37799;52.390;6.136;2023-04-19T11:14:41;2.13;;;0.50;;
37201;SDS011;37799;52.390;6.136;2023-04-19T11:17:18;2.17;;;0.50;;
37201;SDS011;37799;52.390;6.136;2023-04-19T11:19:55;1.73;;;0.40;;
37201;SDS011;37799;52.390;6.136;2023-04-19T11:25:04;2.13;;;0.38;;
37201;SDS011;37799;52.390;6.136;2023-04-19T11:27:29;2.83;;;0.43;;
37201;SDS011;37799;52.390;6.136;2023-04-19T11:30:00;1.25;;;0.40;;
37201;SDS011;37799;52.390;6.136;2023-04-19T11:32:27;1.52;;;0.25;;
37201;SDS011;37799;52.390;6.136;2023-04-19T11:34:52;1.08;;;0.30;;
37201;SDS011;37799;52.390;6.136;2023-04-19T11:37:20;2.30;;;0.40;;
37201;SDS011;37799;52.390;6.136;2023-04-19T11:39:45;3.05;;;0.50;;
37201;SDS011;37799;52.390;6.136;2023-04-19T11:42:18;0.60;;;0.15;;
37201;SDS011;37799;52.390;6.136;2023-04-19T11:44:47;2.05;;;0.40;;
37201;SDS011;37799;52.390;6.136;2023-04-19T11:47:16;2.42;;;0.60;;
37201;SDS011;37799;52.390;6.136;2023-04-19T11:49:41;3.80;;;0.80;;
37201;SDS011;37799;52.390;6.136;2023-04-19T11:52:07;2.03;;;0.50;;
37201;SDS011;37799;52.390;6.136;2023-04-19T11:54:32;1.58;;;0.40;;
37201;SDS011;37799;52.390;6.136;2023-04-19T11:57:07;2.05;;;0.30;;
37201;SDS011;37799;52.390;6.136;2023-04-19T11:59:34;4.00;;;0.50;;
37201;SDS011;37799;52.390;6.136;2023-04-19T12:02:04;1.90;;;0.30;;
37201;SDS011;37799;52.390;6.136;2023-04-19T12:04:30;3.33;;;0.30;;
37201;SDS011;37799;52.390;6.136;2023-04-19T12:06:57;2.33;;;0.45;;
37201;SDS011;37799;52.390;6.136;2023-04-19T12:09:23;1.58;;;0.40;;
37201;SDS011;37799;52.390;6.136;2023-04-19T12:11:49;1.70;;;0.80;;
37201;SDS011;37799;52.390;6.136;2023-04-19T12:14:15;1.98;;;0.40;;
37201;SDS011;37799;52.390;6.136;2023-04-19T12:17:01;1.95;;;0.35;;
37201;SDS011;37799;52.390;6.136;2023-04-19T12:19:35;1.08;;;0.20;;
37201;SDS011;37799;52.390;6.136;2023-04-19T12:22:11;1.70;;;0.47;;
37201;SDS011;37799;52.390;6.136;2023-04-19T12:24:40;3.60;;;0.68;;
37201;SDS011;37799;52.390;6.136;2023-04-19T12:27:06;1.92;;;0.40;;
37201;SDS011;37799;52.390;6.136;2023-04-19T12:29:32;1.05;;;0.20;;
37201;SDS011;37799;52.390;6.136;2023-04-19T12:31:58;1.63;;;0.28;;
37201;SDS011;37799;52.390;6.136;2023-04-19T12:34:24;1.38;;;0.38;;
37201;SDS011;37799;52.390;6.136;2023-04-19T12:36:50;2.17;;;0.30;;
37201;SDS011;37799;52.390;6.136;2023-04-19T12:39:15;2.15;;;0.30;;
37201;SDS011;37799;52.390;6.136;2023-04-19T12:41:40;1.17;;;0.30;;
37201;SDS011;37799;52.390;6.136;2023-04-19T12:44:06;3.88;;;0.30;;
37201;SDS011;37799;52.390;6.136;2023-04-19T12:46:31;1.33;;;0.28;;
37201;SDS011;37799;52.390;6.136;2023-04-19T12:48:56;2.72;;;0.47;;
37201;SDS011;37799;52.390;6.136;2023-04-19T12:51:22;2.38;;;0.32;;
37201;SDS011;37799;52.390;6.136;2023-04-19T12:53:47;1.65;;;0.30;;
37201;SDS011;37799;52.390;6.136;2023-04-19T12:56:13;1.75;;;0.38;;
37201;SDS011;37799;52.390;6.136;2023-04-19T12:58:40;1.85;;;0.38;;
37201;SDS011;37799;52.390;6.136;2023-04-19T13:01:05;4.05;;;0.43;;
37201;SDS011;37799;52.390;6.136;2023-04-19T13:03:31;1.50;;;0.40;;
37201;SDS011;37799;52.390;6.136;2023-04-19T13:06:00;1.70;;;0.30;;
37201;SDS011;37799;52.390;6.136;2023-04-19T13:08:25;1.73;;;0.60;;
37201;SDS011;37799;52.390;6.136;2023-04-19T13:10:50;1.20;;;0.30;;
37201;SDS011;37799;52.390;6.136;2023-04-19T13:13:16;1.55;;;0.30;;
37201;SDS011;37799;52.390;6.136;2023-04-19T13:15:41;1.55;;;0.30;;
37201;SDS011;37799;52.390;6.136;2023-04-19T13:18:07;2.83;;;0.40;;
37201;SDS011;37799;52.390;6.136;2023-04-19T13:20:32;1.48;;;0.30;;
37201;SDS011;37799;52.390;6.136;2023-04-19T13:22:57;1.73;;;0.30;;
37201;SDS011;37799;52.390;6.136;2023-04-19T13:25:23;2.38;;;0.30;;
37201;SDS011;37799;52.390;6.136;2023-04-19T13:27:48;1.35;;;0.40;;
37201;SDS011;37799;52.390;6.136;2023-04-19T13:30:14;3.17;;;0.38;;
37201;SDS011;37799;52.390;6.136;2023-04-19T13:32:39;2.92;;;0.40;;
37201;SDS011;37799;52.390;6.136;2023-04-19T13:35:05;2.40;;;0.30;;
37201;SDS011;37799;52.390;6.136;2023-04-19T13:37:30;2.45;;;0.52;;
37201;SDS011;37799;52.390;6.136;2023-04-19T13:39:55;2.43;;;0.30;;
37201;SDS011;37799;52.390;6.136;2023-04-19T13:42:21;1.70;;;0.37;;
37201;SDS011;37799;52.390;6.136;2023-04-19T13:44:47;1.70;;;0.28;;
37201;SDS011;37799;52.390;6.136;2023-04-19T13:47:12;1.90;;;0.40;;
37201;SDS011;37799;52.390;6.136;2023-04-19T13:49:38;2.17;;;0.52;;
37201;SDS011;37799;52.390;6.136;2023-04-19T13:52:03;2.37;;;0.47;;
37201;SDS011;37799;52.390;6.136;2023-04-19T13:54:28;1.55;;;0.30;;
37201;SDS011;37799;52.390;6.136;2023-04-19T13:56:54;1.98;;;0.45;;
37201;SDS011;37799;52.390;6.136;2023-04-19T13:59:20;2.33;;;0.40;;
37201;SDS011;37799;52.390;6.136;2023-04-19T14:01:45;1.30;;;0.40;;
37201;SDS011;37799;52.390;6.136;2023-04-19T14:04:10;2.95;;;0.73;;
37201;SDS011;37799;52.390;6.136;2023-04-19T14:06:36;2.67;;;0.60;;
37201;SDS011;37799;52.390;6.136;2023-04-19T14:09:01;1.17;;;0.40;;
37201;SDS011;37799;52.390;6.136;2023-04-19T14:11:26;5.85;;;0.40;;
37201;SDS011;37799;52.390;6.136;2023-04-19T14:13:52;2.15;;;0.40;;
37201;SDS011;37799;52.390;6.136;2023-04-19T14:16:18;2.78;;;0.32;;
37201;SDS011;37799;52.390;6.136;2023-04-19T14:18:44;3.28;;;0.73;;
37201;SDS011;37799;52.390;6.136;2023-04-19T14:21:10;3.58;;;0.88;;
37201;SDS011;37799;52.390;6.136;2023-04-19T14:23:35;2.22;;;0.50;;
37201;SDS011;37799;52.390;6.136;2023-04-19T14:26:02;1.70;;;0.35;;
37201;SDS011;37799;52.390;6.136;2023-04-19T14:28:27;2.75;;;0.60;;
37201;SDS011;37799;52.390;6.136;2023-04-19T14:30:52;6.40;;;0.60;;
37201;SDS011;37799;52.390;6.136;2023-04-19T14:33:18;3.78;;;0.90;;
37201;SDS011;37799;52.390;6.136;2023-04-19T14:35:43;2.92;;;0.65;;
37201;SDS011;37799;52.390;6.136;2023-04-19T14:38:08;3.83;;;0.80;;
37201;SDS011;37799;52.390;6.136;2023-04-19T14:40:34;2.58;;;0.47;;
37201;SDS011;37799;52.390;6.136;2023-04-19T14:42:59;4.07;;;0.68;;
37201;SDS011;37799;52.390;6.136;2023-04-19T14:45:25;4.30;;;0.80;;
37201;SDS011;37799;52.390;6.136;2023-04-19T14:47:51;3.20;;;0.60;;
37201;SDS011;37799;52.390;6.136;2023-04-19T14:50:17;2.88;;;0.77;;
37201;SDS011;37799;52.390;6.136;2023-04-19T14:52:42;4.68;;;0.63;;
37201;SDS011;37799;52.390;6.136;2023-04-19T14:55:07;2.50;;;0.55;;
37201;SDS011;37799;52.390;6.136;2023-04-19T14:57:33;2.05;;;0.50;;
37201;SDS011;37799;52.390;6.136;2023-04-19T14:59:59;2.83;;;0.80;;
37201;SDS011;37799;52.390;6.136;2023-04-19T15:02:25;3.20;;;0.60;;
37201;SDS011;37799;52.390;6.136;2023-04-19T15:04:50;2.28;;;0.50;;
37201;SDS011;37799;52.390;6.136;2023-04-19T15:07:16;2.25;;;0.30;;